Etusivu
METAR-TAF:

METAR-TAF

Lentoasemat :

Errachidia, Marokko

Leveyspiiri: 31-56N, Pituuspiiri: 004-24W, korkeus merenpinnasta: 1034 m

Tämänhetkinen sää

Tämä raportti tehtiin 27 minuuttia sitten, kello 06.00 UTC
Tuuli 2 kn eri suunnista
Lämpötila 8°C
Kosteus 27%
Ilmanpaine 1025 hPa
Näkyvyys 10 km tai enemmän
ei pilviä alle 1500 m:ssä eikä cumulonimbus-pilviä

METAR: GMFK 270600Z VRB02KT CAVOK 08/M10 Q1025 NOSIG

Aika: 07:27 (06:27 UTC)

Sääennuste

Tämä raportti tehtiin 1 tunti ja 27 minuuttia sitten, kello 05.00 UTC
Ennuste voimassa 27. päivästä klo 06 UTC - 28. päivään klo 12 UTC
Tuuli 8 kn lännestä/luoteesta
Näkyvyys 10 km tai enemmän
ei pilviä alle 1500 m:ssä eikä cumulonimbus-pilviä

TAF: GMFK 270500Z 2706/2812 30008KT CAVOK

Säähavainnot ja -ennusteet yli 4000 lentoasemalta (METAR- ja TAF-raportit).

Käytössä olevat sääasemat on merkitty karttaan keltaisilla ja punaisilla pisteillä.

Aseta hiiri pisteen päälle nähdäksesi sääaseman nimen.

Klikkaa sitten nähdäksesi säähavainnot ja -ennusteet.

Kartan vaihtaminen: klikkaa mustalla rastilla varustettuja vihreitä pisteitä, niin voit zoomata sisään; viivalla varustettua vihreää pistettä, niin voit zoomata ulos tai vihreitä nuolia, niin pääset viereisille kartoille.


METAR-TAF: